Rodez-Marcillac Airport

LFCR · Aveyron, Occitanie, Frankrijk

METAR historie LFCR · Rodez-Marcillac Airport

Hieronder zie je METAR's van de afgelopen dagen. Kies een jaar om door oudere METAR's te bladeren, vanaf het jaar 2007.

1 december 2022

Tijd Code Weer Temp. Zicht Plafond Wind METAR/SPECI
20:30
V
5 °C 10 km+ 3.300 ft 360° 360° 4 kt METAR LFCR 011930Z AUTO 36004KT 9999 OVC033 05/M00 Q1018 NOSIG
20:00
V
5 °C 10 km+ 3.600 ft Var Var 2 kt METAR LFCR 011900Z AUTO VRB02KT 9999 OVC036 05/M00 Q1018 NOSIG
19:30
V
5 °C 10 km+ 3.600 ft 030° 030° 4 kt METAR LFCR 011830Z AUTO 03004KT 360V060 9999 OVC036 05/M00 Q1018 NOSIG
19:00
V
5 °C 10 km+ 3.400 ft 030° 030° 5 kt METAR LFCR 011800Z AUTO 03005KT 9999 OVC034 05/00 Q1018 NOSIG
18:30
V
5 °C 10 km+ 3.400 ft 040° 040° 5 kt METAR LFCR 011730Z AUTO 04005KT 9999 OVC034 05/00 Q1018 NOSIG
18:00
V
5 °C 10 km+ 3.400 ft 030° 030° 8 kt METAR LFCR 011700Z AUTO 03008KT 360V060 9999 OVC034 05/00 Q1018 NOSIG
17:30
V
5 °C 10 km+ 3.600 ft 020° 020° 8 kt METAR LFCR 011630Z AUTO 02008KT 9999 OVC036 05/01 Q1018 NOSIG
17:00
V
5 °C 10 km+ 3.800 ft 010° 010° 7 kt METAR LFCR 011600Z AUTO 01007KT 9999 OVC038 05/01 Q1018 NOSIG
16:30
V
6 °C 10 km+ 3.800 ft 010° 010° 6 kt METAR LFCR 011530Z AUTO 01006KT 9999 OVC038 06/01 Q1018 NOSIG
16:00
V
6 °C 10 km+ 3.900 ft 010° 010° 6 kt METAR LFCR 011500Z AUTO 01006KT 9999 OVC039 06/01 Q1018 NOSIG
15:30
V
6 °C 10 km+ 4.300 ft 350° 350° 6 kt METAR LFCR 011430Z AUTO 35006KT 320V020 9999 OVC043 06/01 Q1017 NOSIG
15:00
V
6 °C 10 km+ 4.200 ft 010° 010° 7 kt METAR LFCR 011400Z AUTO 01007KT 340V040 9999 OVC042 06/01 Q1017 NOSIG
14:30
V
6 °C 10 km+ 4.100 ft 010° 010° 7 kt METAR LFCR 011330Z AUTO 01007KT 9999 FEW030 OVC041 06/02 Q1017 NOSIG
14:00
V
7 °C 10 km+ 4.500 ft 010° 010° 6 kt METAR LFCR 011300Z AUTO 01006KT 9999 FEW031 OVC045 07/01 Q1018 NOSIG
13:30
V
7 °C 10 km+ 4.100 ft 020° 020° 7 kt METAR LFCR 011230Z AUTO 02007KT 9999 FEW034 BKN041 OVC047 07/01 Q1018 NOSIG
13:00
V
8 °C 10 km+ 3.600 ft 040° 040° 7 kt METAR LFCR 011200Z AUTO 04007KT 360V070 9999 BKN036 OVC042 08/01 Q1018 NOSIG
12:30
V
8 °C 10 km+ 3.300 ft 030° 030° 5 kt METAR LFCR 011130Z AUTO 03005KT 340V100 9999 BKN033 BKN039 08/01 Q1018 NOSIG
12:00
V
7 °C 10 km+ - 010° 010° 4 kt METAR LFCR 011100Z AUTO 01004KT 330V050 9999 FEW032 07/02 Q1018 NOSIG
11:30
V
7 °C 10 km+ - 340° 340° 5 kt METAR LFCR 011030Z AUTO 34005KT 310V010 CAVOK 07/02 Q1018 NOSIG
11:00
V
6 °C 10 km+ - 350° 350° 6 kt METAR LFCR 011000Z AUTO 35006KT CAVOK 06/02 Q1018 NOSIG
10:30
V
5 °C 10 km+ - 360° 360° 6 kt METAR LFCR 010930Z AUTO 36006KT CAVOK 05/02 Q1018 NOSIG
10:00
V
5 °C 10 km+ - 340° 340° 6 kt METAR LFCR 010900Z AUTO 34006KT 320V020 CAVOK 05/02 Q1018 NOSIG
09:30
V
5 °C 10 km+ 3.700 ft 340° 340° 8 kt METAR LFCR 010830Z AUTO 34008KT 9999 BKN037 05/02 Q1018 NOSIG
09:00
V
4 °C 10 km+ 3.700 ft 350° 350° 7 kt METAR LFCR 010800Z AUTO 35007KT 9999 BKN037 BKN043 OVC049 04/02 Q1018 NOSIG
08:30
V
4 °C 10 km+ 4.700 ft 350° 350° 7 kt METAR LFCR 010730Z AUTO 35007KT 9999 FEW038 OVC047 04/02 Q1018 NOSIG
08:00
V
3 °C 10 km+ 4.500 ft 360° 360° 5 kt METAR LFCR 010700Z AUTO 36005KT 9999 OVC045 03/01 Q1018 TEMPO 4000 BR
07:30
V
3 °C 10 km+ 4.300 ft 360° 360° 5 kt METAR LFCR 010630Z AUTO 36005KT 9999 OVC043 03/02 Q1017 TEMPO 4000 BR
07:00
V
2 °C 10 km+ 4.500 ft 350° 350° 5 kt METAR LFCR 010600Z AUTO 35005KT 9999 OVC045 02/02 Q1017 TEMPO 4000 BR
06:30
V
0 °C 10 km+ 4.200 ft Var Var 2 kt METAR LFCR 010530Z AUTO VRB02KT 9999 OVC042 00/M00 Q1017 TEMPO 4000 BR
06:00
V
0 °C 10 km+ 3.800 ft Var 000° 0 kt METAR LFCR 010500Z AUTO 00000KT 9999 OVC038 M00/M01 Q1017 TEMPO 4000 BR
05:30
V
-1 °C 10 km+ 3.800 ft Var 000° 0 kt METAR LFCR 010430Z AUTO 00000KT 9999 OVC038 M01/M02 Q1017 TEMPO 4000 BR
05:00
V
-2 °C 10 km+ 3.800 ft Var 000° 0 kt METAR LFCR 010400Z AUTO 00000KT 9999 BKN038 M02/M02 Q1017 TEMPO 4000 BR
04:30
V
-2 °C 10 km+ - Var Var 2 kt METAR LFCR 010330Z AUTO VRB02KT 9999 SCT035 M02/M03 Q1017 TEMPO 4000 BR
04:00
V
-2 °C 10 km+ 3.400 ft Var 000° 0 kt METAR LFCR 010300Z AUTO 00000KT 9999 OVC034 M02/M02 Q1017 TEMPO 4000 BR
03:30
V
-2 °C 10 km+ 3.400 ft Var 000° 0 kt METAR LFCR 010230Z AUTO 00000KT 9999 OVC034 M02/M03 Q1017 TEMPO 4000 BR
03:00
V
-3 °C 8 km 3.400 ft 130° 130° 3 kt METAR LFCR 010200Z AUTO 13003KT 8000 BKN034 M03/M03 Q1017 TEMPO 4000 BR
02:30
V
-3 °C 8 km - Var 000° 0 kt METAR LFCR 010130Z AUTO 00000KT 8000 FEW035 M03/M03 Q1017 TEMPO 4000 BR
02:00
V
-3 °C 10 km+ - Var Var 1 kt METAR LFCR 010100Z AUTO VRB01KT 9999 FEW038 M03/M03 Q1017 TEMPO 4000 BR
01:30
M
-2 °C 5 km - 010° 010° 1 kt METAR LFCR 010030Z AUTO 01001KT 5000 BR NSC M02/M03 Q1017 NOSIG
01:00
V
-2 °C 9 km - 140° 140° 1 kt METAR LFCR 010000Z AUTO 14001KT 9000 NSC M02/M02 Q1017 TEMPO 4000 BR
00:30
M
-1 °C 6 km - Var Var 1 kt METAR LFCR 302330Z AUTO VRB01KT 6000 NSC M01/M02 Q1018 TEMPO 4000 BR
00:00
V
-2 °C 10 km+ - 200° 200° 2 kt METAR LFCR 302300Z AUTO 20002KT CAVOK M02/M03 Q1018 TEMPO 4000 BR

30 november 2022

Tijd Code Weer Temp. Zicht Plafond Wind METAR/SPECI
23:30
V
-2 °C 10 km+ - Var 000° 0 kt METAR LFCR 302230Z AUTO 00000KT CAVOK M02/M02 Q1018 TEMPO 4000 BR
23:00
V
-1 °C 10 km+ - Var 000° 0 kt METAR LFCR 302200Z AUTO 00000KT CAVOK M01/M02 Q1018 TEMPO 4000 BR
22:30
M
-1 °C 7 km - Var Var 3 kt METAR LFCR 302130Z AUTO VRB03KT 7000 NSC M01/M01 Q1017 TEMPO 4000 BR
22:00
V
0 °C 10 km+ - Var Var 2 kt METAR LFCR 302100Z AUTO VRB02KT CAVOK M00/M00 Q1017 TEMPO 4000 BR
21:30
V
0 °C 10 km+ - Var Var 1 kt METAR LFCR 302030Z AUTO VRB01KT CAVOK 00/00 Q1017 TEMPO 4000 BR
21:00
V
0 °C 10 km+ - 220° 220° 1 kt METAR LFCR 302000Z AUTO 22001KT CAVOK 00/M00 Q1017 TEMPO 4000 BR
20:30
V
1 °C 10 km+ - 170° 170° 1 kt METAR LFCR 301930Z AUTO 17001KT CAVOK 01/01 Q1017 TEMPO 4000 BR
20:00
V
0 °C 10 km+ - 170° 170° 2 kt METAR LFCR 301900Z AUTO 17002KT CAVOK 00/M01 Q1017 TEMPO 4000 BR
19:30
V
2 °C 10 km+ - Var Var 2 kt METAR LFCR 301830Z AUTO VRB02KT CAVOK 02/M01 Q1017 TEMPO 4000 BR
18:30
V
3 °C 10 km+ - Var Var 3 kt METAR LFCR 301730Z AUTO VRB03KT CAVOK 03/01 Q1016 TEMPO 4000 BR
18:00
V
4 °C 10 km+ - 040° 040° 4 kt METAR LFCR 301700Z AUTO 04004KT 010V070 CAVOK 04/02 Q1016 NOSIG
17:30
V
4 °C 10 km+ - 010° 010° 5 kt METAR LFCR 301630Z AUTO 01005KT CAVOK 04/03 Q1016 NOSIG
17:00
V
5 °C 10 km+ - 360° 360° 3 kt METAR LFCR 301600Z AUTO 36003KT 330V040 CAVOK 05/03 Q1016 NOSIG
16:30
V
6 °C 10 km+ - 320° 320° 3 kt METAR LFCR 301530Z AUTO 32003KT 290V350 CAVOK 06/04 Q1016 NOSIG
16:00
V
6 °C 10 km+ - 310° 310° 4 kt METAR LFCR 301500Z AUTO 31004KT CAVOK 06/04 Q1016 NOSIG
15:30
V
7 °C 10 km+ - 320° 320° 3 kt METAR LFCR 301430Z AUTO 32003KT 290V010 CAVOK 07/04 Q1016 NOSIG
15:00
V
7 °C 10 km+ - 330° 330° 4 kt METAR LFCR 301400Z AUTO 33004KT 300V010 CAVOK 07/04 Q1016 NOSIG
14:30
V
7 °C 10 km+ - 310° 310° 3 kt METAR LFCR 301330Z AUTO 31003KT 280V350 CAVOK 07/04 Q1016 NOSIG
14:00
V
5 °C 10 km+ - Var Var 3 kt METAR LFCR 301300Z AUTO VRB03KT 9999 FEW007 05/04 Q1016 TEMPO 4000 BR BKN002
13:30
V
5 °C 10 km+ - 310° 310° 3 kt METAR LFCR 301230Z AUTO 31003KT 270V330 9999 SCT006 05/04 Q1017 TEMPO 4000 BR BKN002
13:00
I
5 °C 10 km+ 500 ft Var Var 2 kt METAR LFCR 301200Z AUTO VRB02KT 9999 BKN005 05/04 Q1017 TEMPO 4000 BR VV///
12:30
L
4 °C 10 km+ 300 ft Var Var 2 kt METAR LFCR 301130Z AUTO VRB02KT 9999 OVC003 04/04 Q1017 BECMG NSC
12:00
L
4 °C 1,6 km - Var Var 2 kt METAR LFCR 301100Z AUTO VRB02KT 1600 BR VV/// 04/04 Q1017 BECMG CAVOK
11:30
L
3 °C 500 m - Var Var 2 kt METAR LFCR 301030Z AUTO VRB02KT 0500 R31/0900U FG VV/// 03/03 Q1017 BECMG CAVOK
11:00
L
2 °C 300 m - Var Var 1 kt METAR LFCR 301000Z AUTO VRB01KT 0300 R31/0550U FG VV/// 02/02 Q1018 BECMG CAVOK
10:30
L
1 °C 250 m - Var Var 2 kt METAR LFCR 300930Z AUTO VRB02KT 0250 R31/0300N FG VV/// 01/01 Q1018 BECMG CAVOK
10:00
L
1 °C 200 m - Var Var 1 kt METAR LFCR 300900Z AUTO VRB01KT 0200 R31/0225N FG VV/// 01/01 Q1017 BECMG 0800 FG OVC002
09:30
L
0 °C 200 m - Var Var 1 kt METAR LFCR 300830Z AUTO VRB01KT 0200 R31/0225N FG VV/// 00/00 Q1018 BECMG 0800 FG OVC002
09:00
L
0 °C 200 m - Var Var 2 kt METAR LFCR 300800Z AUTO VRB02KT 0250 0200 R31/M0200N FZFG VV/// M00/M00 Q1017 BECMG 8000 NSW SCT007
08:30
L
0 °C 250 m - Var Var 2 kt METAR LFCR 300730Z AUTO VRB02KT 0300 0250 R31/0325N FZFG VV/// M00/M00 Q1017 BECMG 8000 NSW SCT007
08:00
L
0 °C 300 m - Var 000° 0 kt METAR LFCR 300700Z AUTO 00000KT 0350 0300 R31/0350N FZFG VV/// M00/M00 Q1017 BECMG 8000 NSW SCT007
07:30
L
0 °C 400 m - Var Var 2 kt METAR LFCR 300630Z AUTO VRB02KT 0400 R31/0450N FZFG VV/// M00/M00 Q1017 BECMG 8000 NSW SCT007
07:00
L
0 °C 450 m - 210° 210° 4 kt METAR LFCR 300600Z AUTO 21004KT 180V250 0500 0450 R31/0550N FZFG VV/// M00/M00 Q1017 NOSIG
06:30
L
1 °C 900 m - 150° 150° 3 kt METAR LFCR 300530Z AUTO 15003KT 1000 0900 R31/1200D BCFG VV/// 01/01 Q1017 TEMPO 0300
06:00
L
1 °C 650 m - 160° 160° 3 kt METAR LFCR 300500Z AUTO 16003KT 0700 0650 R31/0800N FG VV/// 01/01 Q1017 TEMPO 0300
05:30
L
1 °C 650 m - Var Var 2 kt METAR LFCR 300430Z AUTO VRB02KT 0700 0650 R31/0750N FG VV/// 01/01 Q1018 TEMPO 0300
05:00
L
1 °C 450 m - Var Var 2 kt METAR LFCR 300400Z AUTO VRB02KT 0500 0450 R31/0650U FG VV/// 01/01 Q1018 TEMPO 0300
04:30
L
1 °C 350 m - Var Var 2 kt METAR LFCR 300330Z AUTO VRB02KT 0400 0350 R31/0400N FG VV/// 01/01 Q1018 TEMPO 0300
04:00
L
1 °C 400 m - 200° 200° 2 kt METAR LFCR 300300Z AUTO 20002KT 0400 R31/0450N FG VV/// 01/01 Q1018 TEMPO 0300
03:30
L
1 °C 350 m - Var Var 2 kt METAR LFCR 300230Z AUTO VRB02KT 0400 0350 R31/0400N FG VV/// 01/01 Q1018 TEMPO 0300
03:00
L
1 °C 350 m - 250° 250° 4 kt METAR LFCR 300200Z AUTO 25004KT 0400 0350 R31/0400N FG VV/// 01/01 Q1018 TEMPO 0300
02:30
L
2 °C 450 m - 280° 280° 5 kt METAR LFCR 300130Z AUTO 28005KT 0450 R31/0900U FG VV/// 02/02 Q1018 TEMPO 0300
02:00
L
2 °C 450 m - 320° 320° 5 kt METAR LFCR 300100Z AUTO 32005KT 0500 0450 R31/0550N FG VV/// 02/02 Q1018 TEMPO 0300
01:30
L
3 °C 550 m - 330° 330° 6 kt METAR LFCR 300030Z AUTO 33006KT 0800 0550 R31/0650D FG VV/// 03/03 Q1018 TEMPO 0300
01:00
L
2 °C 500 m - 320° 320° 5 kt METAR LFCR 300000Z AUTO 32005KT 0550 0500 R31/0600N FG VV/// 02/02 Q1018 NOSIG
00:30
L
2 °C 350 m - 290° 290° 4 kt METAR LFCR 292330Z AUTO 29004KT 0350 R31/0400N FG VV/// 02/02 Q1018 TEMPO 0600 FG
00:00
V
3 °C 10 km+ - 330° 330° 4 kt METAR LFCR 292300Z AUTO 33004KT 9999 SCT002 03/03 Q1018 TEMPO 0600 FG VV///

29 november 2022

Tijd Code Weer Temp. Zicht Plafond Wind METAR/SPECI
23:30
L
4 °C 10 km+ 300 ft 330° 330° 6 kt METAR LFCR 292230Z AUTO 33006KT 9999 OVC003 04/04 Q1018 TEMPO 0600 FG VV///
23:00
L
3 °C 10 km+ 400 ft 300° 300° 5 kt METAR LFCR 292200Z AUTO 30005KT 9999 OVC004 03/03 Q1018 BECMG 3000 BR
22:30
I
3 °C 10 km+ 500 ft 320° 320° 5 kt METAR LFCR 292130Z AUTO 32005KT 9999 BKN005 03/03 Q1018 BECMG 3000 BR
22:00
I
4 °C 10 km+ 900 ft 310° 310° 6 kt METAR LFCR 292100Z AUTO 31006KT 9999 BKN009 04/04 Q1018 BECMG 3000 BR BKN002
21:30
I
4 °C 10 km+ 500 ft 320° 320° 4 kt METAR LFCR 292030Z AUTO 32004KT 9999 BKN005 OVC010 04/04 Q1018 BECMG 3000 BR
21:00
I
2 °C 10 km+ 600 ft 300° 300° 6 kt METAR LFCR 292000Z AUTO 30006KT 9999 BKN006 BKN012 02/02 Q1018 BECMG 3000 BR BKN002
20:30
M
4 °C 10 km+ 1.300 ft 310° 310° 5 kt METAR LFCR 291930Z AUTO 31005KT 9999 FEW008 OVC013 04/03 Q1019 BECMG 3000 BR BKN002
20:00
I
4 °C 10 km+ 800 ft 310° 310° 4 kt METAR LFCR 291900Z AUTO 31004KT 9999 BKN008 BKN014 04/04 Q1019 BECMG 3000 BR BKN002
19:30
M
4 °C 10 km+ 1.600 ft 300° 300° 6 kt METAR LFCR 291830Z AUTO 30006KT 9999 FEW010 BKN016 BKN036 04/03 Q1018 BECMG 3000 BR BKN002
19:00
V
3 °C 10 km+ - 290° 290° 8 kt METAR LFCR 291800Z AUTO 29008KT 9999 NSC 03/03 Q1018 BECMG BKN005
18:30
V
3 °C 10 km+ - 290° 290° 11 kt METAR LFCR 291730Z AUTO 29011KT 9999 NSC 03/03 Q1018 BECMG 3000 BR BKN003
18:00
V
4 °C 10 km+ - 300° 300° 10 kt METAR LFCR 291700Z AUTO 30010KT 9999 FEW017 04/03 Q1018 NOSIG
17:30
M
6 °C 10 km+ 1.400 ft 290° 290° 9 kt METAR LFCR 291630Z AUTO 29009KT 9999 BKN014 BKN021 OVC026 06/04 Q1018 BECMG SCT012 BKN025
17:00
M
6 °C 10 km+ 1.600 ft 300° 300° 10 kt METAR LFCR 291600Z AUTO 30010KT 9999 BKN016 BKN025 OVC030 06/04 Q1018 NOSIG
16:30
M
6 °C 10 km+ 2.400 ft 300° 300° 10 kt METAR LFCR 291530Z AUTO 30010KT 9999 FEW016 BKN024 06/04 Q1018 NOSIG
16:00
V
6 °C 10 km+ - 300° 300° 10 kt METAR LFCR 291500Z AUTO 30010KT 9999 FEW016 SCT026 06/04 Q1017 NOSIG
15:30
M
6 °C 10 km+ 2.600 ft 300° 300° 11 kt METAR LFCR 291430Z AUTO 30011KT 9999 SCT016 BKN026 BKN032 06/04 Q1018 NOSIG
15:00
V
6 °C 10 km+ 3.600 ft 300° 300° 11 kt METAR LFCR 291400Z AUTO 30011KT 9999 SCT015 SCT029 BKN036 06/04 Q1018 NOSIG
14:30
M
7 °C 10 km+ 2.300 ft 310° 310° 10 kt METAR LFCR 291330Z AUTO 31010KT 9999 SCT015 BKN023 BKN035 07/04 Q1018 NOSIG
14:00
M
6 °C 10 km+ 2.800 ft 300° 300° 10 kt METAR LFCR 291300Z AUTO 30010KT 9999 BKN028 06/04 Q1018 NOSIG
13:30
M
6 °C 10 km+ 2.600 ft 330° 330° 7 kt METAR LFCR 291230Z AUTO 33007KT 300V010 9999 SCT012 BKN026 OVC037 06/04 Q1018 BECMG BKN014
13:00
M
5 °C 10 km+ 1.300 ft 320° 320° 7 kt METAR LFCR 291200Z AUTO 32007KT 9999 BKN013 OVC020 05/04 Q1018 NOSIG
12:30
M
5 °C 10 km+ 1.000 ft 310° 310° 9 kt METAR LFCR 291130Z AUTO 31009KT 9999 BKN010 OVC014 05/04 Q1018 BECMG BKN017
12:00
I
5 °C 10 km+ 900 ft 320° 320° 10 kt METAR LFCR 291100Z AUTO 32010KT 290V350 9999 BKN009 BKN016 05/04 Q1018 BECMG BKN017
11:30
I
5 °C 10 km+ 600 ft 300° 300° 8 kt METAR LFCR 291030Z AUTO 30008KT 9999 BKN006 BKN011 OVC016 05/04 Q1019 BECMG BKN017
11:00
I
5 °C 10 km+ 800 ft 310° 310° 9 kt METAR LFCR 291000Z AUTO 31009KT 9999 BKN008 OVC013 05/04 Q1019 BECMG BKN012

Wij en derden volgen je internetgedrag op onze website met cookies. Als je doorgaat, gaan we ervan uit dat je akkoord gaat met onze cookiebeleid.